Time;durP1;ratioP1;P1;durP2;ratioP2;P2;SDS_P1;SDS_P2;PMS_P1;PMS_P2;Temp;Humidity;BMP_temperature;BMP_pressure;BME280_temperature;BME280_humidity;BME280_pressure;Samples;Min_cycle;Max_cycle;Signal;HPM_P1;HPM_P2
2022/07/10 00:00:09;;;;;;;2.72;2.05;;;;;;;-149.78;100.00;50033.38;5078000;28;20062;-76
2022/07/10 00:02:35;;;;;;;3.58;2.30;;;;;;;-149.78;100.00;50058.78;5076917;28;20012;-75
2022/07/10 00:05:00;;;;;;;2.95;2.20;;;;;;;-149.78;100.00;50035.34;5078108;28;20379;-75
2022/07/10 00:07:26;;;;;;;2.65;2.13;;;;;;;-149.78;100.00;50037.28;5043034;28;20028;-75
2022/07/10 00:09:52;;;;;;;3.30;2.10;;;;;;;-149.78;100.00;50033.38;5078368;28;20032;-75
2022/07/10 00:12:18;;;;;;;3.90;2.45;;;;;;;-149.78;100.00;50052.94;5059559;28;20382;-75
2022/07/10 00:14:44;;;;;;;17.50;9.00;;;;;;;-149.78;100.00;50041.19;5077847;28;20085;-75
2022/07/10 00:17:09;;;;;;;101.82;46.45;;;;;;;-149.78;100.00;50064.66;5076714;28;20401;-75
2022/07/10 00:19:35;;;;;;;25.20;11.85;;;;;;;-149.78;100.00;50041.19;5076882;28;20575;-75
2022/07/10 00:22:00;;;;;;;5.38;3.60;;;;;;;-149.78;100.00;50064.66;5078575;28;20166;-76
2022/07/10 00:24:26;;;;;;;3.60;2.63;;;;;;;-149.78;100.00;50072.50;5078749;28;20040;-75
2022/07/10 00:26:52;;;;;;;3.83;2.33;;;;;;;-149.78;100.00;50052.94;5076773;28;20393;-75
2022/07/10 00:29:18;;;;;;;4.00;2.67;;;;;;;-149.78;100.00;50054.88;5078402;28;20031;-75
2022/07/10 00:31:44;;;;;;;4.18;2.53;;;;;;;-149.78;100.00;50017.72;5075725;28;20143;-75
2022/07/10 00:34:10;;;;;;;4.43;2.15;;;;;;;-149.78;100.00;50060.75;5080246;28;20036;-75
2022/07/10 00:36:36;;;;;;;4.07;2.03;;;;;;;-149.78;100.00;50095.94;5076914;28;20181;-75
2022/07/10 00:39:02;;;;;;;4.07;2.38;;;;;;;-149.78;100.00;50084.22;5060655;28;20056;-75
2022/07/10 00:41:28;;;;;;;3.50;2.22;;;;;;;-149.78;100.00;50060.75;5078581;28;20083;-75
2022/07/10 00:43:59;;;;;;;3.03;2.38;;;;;;;-149.78;100.00;50041.19;5077536;28;20024;-75
2022/07/10 00:46:26;;;;;;;2.78;2.05;;;;;;;-149.78;100.00;50045.09;5077739;28;20030;-75
2022/07/10 00:48:52;;;;;;;4.18;2.60;;;;;;;-149.78;100.00;50064.66;5075343;28;20690;-75
2022/07/10 00:51:21;;;;;;;3.55;2.40;;;;;;;-149.78;100.00;50060.75;5077865;28;20779;-75
2022/07/10 00:53:48;;;;;;;5.07;2.63;;;;;;;-149.78;100.00;50045.09;5077948;28;20377;-75
2022/07/10 00:56:17;;;;;;;6.28;2.60;;;;;;;-149.78;100.00;50041.19;5078163;28;20039;-76
2022/07/10 00:58:45;;;;;;;3.42;2.20;;;;;;;-149.78;100.00;50049.03;5076539;28;20032;-75
2022/07/10 01:01:11;;;;;;;5.95;2.42;;;;;;;-149.78;100.00;50092.03;5077153;28;20752;-75
2022/07/10 01:03:36;;;;;;;5.30;2.83;;;;;;;-149.78;100.00;50006.00;5080215;28;20058;-75
2022/07/10 01:06:03;;;;;;;3.17;2.58;;;;;;;-149.78;100.00;50043.16;5081959;28;20504;-75
2022/07/10 01:08:29;;;;;;;3.60;2.60;;;;;;;-149.78;100.00;50052.94;5635846;22;20450;-72
2022/07/10 01:10:55;;;;;;;6.10;2.80;;;;;;;-149.78;100.00;50047.06;5020149;28;20124;-73
2022/07/10 01:13:21;;;;;;;4.45;2.45;;;;;;;-149.78;100.00;50045.09;5021176;28;20485;-73
2022/07/10 01:15:47;;;;;;;5.55;2.70;;;;;;;-149.78;100.00;50076.41;5022279;28;20088;-73
2022/07/10 01:18:14;;;;;;;4.10;2.55;;;;;;;-149.78;100.00;50045.09;5020404;28;20436;-73
2022/07/10 01:20:40;;;;;;;3.20;2.42;;;;;;;-149.78;100.00;50072.50;5021390;28;20188;-73
2022/07/10 01:23:06;;;;;;;4.20;2.38;;;;;;;-149.78;100.00;50049.03;5020316;28;20043;-73
2022/07/10 01:25:32;;;;;;;3.65;2.60;;;;;;;-149.78;100.00;50037.28;5019973;28;20029;-73
2022/07/10 01:28:02;;;;;;;3.90;2.50;;;;;;;-149.78;100.00;50088.13;5022630;28;20044;-73
2022/07/10 01:30:28;;;;;;;4.70;2.55;;;;;;;-149.78;100.00;50045.09;5021874;28;20029;-73
2022/07/10 01:32:54;;;;;;;4.65;2.63;;;;;;;-149.78;100.00;50033.38;5022303;28;20041;-73
2022/07/10 01:35:21;;;;;;;4.43;2.53;;;;;;;-149.78;100.00;50041.19;5020889;28;20086;-73
2022/07/10 01:37:47;;;;;;;4.30;2.60;;;;;;;-149.78;100.00;50080.31;5022889;28;20120;-73
2022/07/10 01:40:13;;;;;;;3.25;2.50;;;;;;;-149.78;100.00;50029.47;5021673;28;20505;-73
2022/07/10 01:42:39;;;;;;;3.05;2.40;;;;;;;-149.78;100.00;50078.34;5019355;28;20165;-73
2022/07/10 01:45:09;;;;;;;3.40;2.38;;;;;;;-149.78;100.00;50052.94;5023327;28;20390;-73
2022/07/10 01:47:35;;;;;;;3.05;2.63;;;;;;;-149.78;100.00;50033.38;5018172;28;20160;-72
2022/07/10 01:50:00;;;;;;;5.47;2.63;;;;;;;-149.78;100.00;50041.19;5021500;28;20057;-72
2022/07/10 01:52:26;;;;;;;5.10;2.33;;;;;;;-149.78;100.00;50047.06;5022198;28;20053;-72
2022/07/10 01:54:52;;;;;;;5.05;2.75;;;;;;;-149.78;100.00;50070.53;5022431;28;20037;-72
2022/07/10 01:57:18;;;;;;;4.72;2.55;;;;;;;-149.78;100.00;50080.31;5021125;28;20030;-72
2022/07/10 01:59:45;;;;;;;4.53;2.70;;;;;;;-149.78;100.00;50072.50;5020264;28;20579;-72
2022/07/10 02:02:10;;;;;;;3.15;2.72;;;;;;;-149.78;100.00;50047.06;5021543;28;20022;-72
2022/07/10 02:04:42;;;;;;;4.30;2.28;;;;;;;-149.78;100.00;50064.66;5014558;28;20068;-72
2022/07/10 02:07:09;;;;;;;3.28;2.33;;;;;;;-149.78;100.00;50056.84;5022140;28;20026;-72
2022/07/10 02:09:35;;;;;;;3.65;2.28;;;;;;;-149.78;100.00;50076.41;5019450;28;20040;-72
2022/07/10 02:12:01;;;;;;;3.67;2.13;;;;;;;-149.78;100.00;50103.78;5020176;28;20427;-72
2022/07/10 02:14:28;;;;;;;4.57;2.60;;;;;;;-149.78;100.00;50092.03;5019444;28;20033;-73
2022/07/10 02:16:53;;;;;;;3.72;2.40;;;;;;;-149.78;100.00;50107.69;5015930;28;20030;-72
2022/07/10 02:19:19;;;;;;;3.47;2.53;;;;;;;-149.78;100.00;50092.03;5020539;28;20151;-72
2022/07/10 02:21:46;;;;;;;2.90;2.50;;;;;;;-149.78;100.00;50099.88;5019715;28;20022;-72
2022/07/10 02:24:11;;;;;;;3.60;2.80;;;;;;;-149.78;100.00;50088.13;5018889;28;20069;-72
2022/07/10 02:26:38;;;;;;;4.90;3.05;;;;;;;-149.78;100.00;50082.25;5018904;28;20052;-72
2022/07/10 02:29:05;;;;;;;5.78;2.50;;;;;;;-149.78;100.00;50088.13;5020021;28;20022;-72
2022/07/10 02:31:32;;;;;;;3.03;2.42;;;;;;;-149.78;100.00;50049.03;5001954;28;20469;-72
2022/07/10 02:33:57;;;;;;;3.85;2.72;;;;;;;-149.78;100.00;50068.56;5020506;28;20148;-72
2022/07/10 02:36:23;;;;;;;5.90;3.17;;;;;;;-149.78;100.00;50050.97;5000357;28;20116;-72
2022/07/10 02:38:49;;;;;;;4.38;2.22;;;;;;;-149.78;100.00;50049.03;5019699;28;20466;-72
2022/07/10 02:41:14;;;;;;;3.70;2.55;;;;;;;-149.78;100.00;50092.03;5019719;28;20049;-72
2022/07/10 02:43:40;;;;;;;3.92;2.70;;;;;;;-149.78;100.00;50105.72;5018971;28;20033;-72
2022/07/10 02:46:05;;;;;;;4.50;2.53;;;;;;;-149.78;100.00;50064.66;5017218;28;20049;-73
2022/07/10 02:48:31;;;;;;;3.30;2.33;;;;;;;-149.78;100.00;50072.50;5018350;28;20025;-74
2022/07/10 02:50:58;;;;;;;3.45;2.45;;;;;;;-149.78;100.00;50076.41;5000390;28;20099;-73
2022/07/10 02:53:23;;;;;;;3.53;2.47;;;;;;;-149.78;100.00;50076.41;5019836;28;20478;-73
2022/07/10 02:55:49;;;;;;;5.00;2.60;;;;;;;-149.78;100.00;50111.59;5017000;28;20025;-73
2022/07/10 02:58:15;;;;;;;4.03;2.47;;;;;;;-149.78;100.00;50095.94;5020018;28;20033;-73
2022/07/10 03:00:41;;;;;;;4.07;2.60;;;;;;;-149.78;100.00;50137.03;5019140;28;20188;-73
2022/07/10 03:03:07;;;;;;;4.53;2.47;;;;;;;-149.78;100.00;50115.50;5019981;28;20036;-73
2022/07/10 03:05:33;;;;;;;5.63;2.40;;;;;;;-149.78;100.00;50080.31;5017822;28;20039;-72
2022/07/10 03:07:59;;;;;;;3.15;2.40;;;;;;;-149.78;100.00;50072.50;5018931;28;20033;-72
2022/07/10 03:10:24;;;;;;;3.92;2.58;;;;;;;-149.78;100.00;50092.03;5018129;28;20100;-72
2022/07/10 03:12:50;;;;;;;4.68;2.53;;;;;;;-149.78;100.00;50084.22;5019539;28;20500;-72
2022/07/10 03:15:15;;;;;;;4.13;2.60;;;;;;;-149.78;100.00;50095.94;5017474;28;20041;-73
2022/07/10 03:17:41;;;;;;;3.58;2.70;;;;;;;-149.78;100.00;50101.81;5019341;28;20033;-72
2022/07/10 03:20:08;;;;;;;4.10;2.58;;;;;;;-149.78;100.00;50121.38;5018017;28;20104;-72
2022/07/10 03:22:34;;;;;;;2.88;2.40;;;;;;;-149.78;100.00;50107.69;5020199;28;20124;-72
2022/07/10 03:25:00;;;;;;;3.63;2.25;;;;;;;-149.78;100.00;50109.66;5014950;28;20037;-75
2022/07/10 03:27:26;;;;;;;5.18;2.60;;;;;;;-149.78;100.00;50117.47;5015941;28;20034;-75
2022/07/10 03:29:52;;;;;;;2.80;2.30;;;;;;;-149.78;100.00;50080.31;5015599;28;20052;-75
2022/07/10 03:32:18;;;;;;;3.75;2.28;;;;;;;-149.78;100.00;50095.94;5013400;28;20034;-74
2022/07/10 03:34:43;;;;;;;3.70;2.65;;;;;;;-149.78;100.00;50131.16;5017344;28;20037;-75
2022/07/10 03:37:09;;;;;;;3.30;2.35;;;;;;;-149.78;100.00;50092.03;5014828;28;20357;-75
2022/07/10 03:39:35;;;;;;;4.97;2.30;;;;;;;-149.78;100.00;50099.88;5015510;28;20033;-75
2022/07/10 03:42:00;;;;;;;3.85;2.60;;;;;;;-149.78;100.00;50088.13;5016555;28;20030;-74
2022/07/10 03:44:26;;;;;;;3.38;2.38;;;;;;;-149.78;100.00;50099.88;5017917;28;20744;-75
2022/07/10 03:46:51;;;;;;;4.28;3.17;;;;;;;-149.78;100.00;50115.50;5020444;28;20095;-75
2022/07/10 03:49:17;;;;;;;4.18;3.00;;;;;;;-149.78;100.00;50072.50;5016345;28;20076;-75
2022/07/10 03:51:43;;;;;;;3.58;2.50;;;;;;;-149.78;100.00;50076.41;5016425;28;20041;-75
2022/07/10 03:54:09;;;;;;;4.30;2.35;;;;;;;-149.78;100.00;50099.88;5014515;28;20031;-75
2022/07/10 03:59:19;;;;;;;3.58;2.42;;;;;;;-149.78;100.00;50092.03;5016737;28;20112;-75
2022/07/10 04:01:44;;;;;;;3.35;2.60;;;;;;;-149.78;100.00;50113.56;5016657;28;20038;-74
2022/07/10 04:04:10;;;;;;;3.38;2.70;;;;;;;-149.78;100.00;50076.41;5016803;28;20048;-75
2022/07/10 04:06:38;;;;;;;2.80;2.15;;;;;;;-149.78;100.00;50095.94;5018136;28;20026;-74
2022/07/10 04:09:05;;;;;;;6.15;2.63;;;;;;;-149.78;100.00;50088.13;5016232;28;20138;-75
2022/07/10 04:11:30;;;;;;;4.63;2.60;;;;;;;-149.78;100.00;50090.09;5017020;28;20406;-74
2022/07/10 04:13:57;;;;;;;4.25;2.60;;;;;;;-149.78;100.00;50135.06;5017811;28;20040;-75
2022/07/10 04:16:22;;;;;;;3.72;2.45;;;;;;;-149.78;100.00;50076.41;5019154;28;20055;-75
2022/07/10 04:18:49;;;;;;;3.67;2.60;;;;;;;-149.78;100.00;50138.97;5017996;28;20026;-75
2022/07/10 04:21:15;;;;;;;5.00;2.63;;;;;;;-149.78;100.00;50086.19;5015861;28;20048;-75
2022/07/10 04:23:41;;;;;;;3.05;2.58;;;;;;;-149.78;100.00;50113.56;5009689;28;20151;-75
2022/07/10 04:26:06;;;;;;;3.83;2.90;;;;;;;-149.78;100.00;50154.63;5017488;28;20716;-74
2022/07/10 04:28:32;;;;;;;4.25;2.70;;;;;;;-149.78;100.00;50097.91;5016806;28;20065;-75
2022/07/10 04:30:58;;;;;;;4.15;2.65;;;;;;;-149.78;100.00;50125.28;5016964;28;20366;-75
2022/07/10 04:33:25;;;;;;;3.30;2.35;;;;;;;-149.78;100.00;50107.69;5016443;28;20394;-75
2022/07/10 04:35:50;;;;;;;3.38;2.60;;;;;;;-149.78;100.00;50109.66;5016870;28;20056;-74
2022/07/10 04:38:16;;;;;;;3.60;2.50;;;;;;;-149.78;100.00;50119.41;5017309;28;20064;-75
2022/07/10 04:40:42;;;;;;;4.43;2.45;;;;;;;-149.78;100.00;50092.03;5016077;28;20454;-75
2022/07/10 04:43:10;;;;;;;6.00;3.55;;;;;;;-149.78;100.00;50109.66;5015451;28;20038;-75
2022/07/10 04:45:37;;;;;;;5.60;2.67;;;;;;;-149.78;100.00;50105.72;5018890;28;20030;-75
2022/07/10 04:48:06;;;;;;;5.75;2.78;;;;;;;-149.78;100.00;50125.28;5016281;28;20556;-75
2022/07/10 04:50:32;;;;;;;5.20;2.83;;;;;;;-149.78;100.00;50111.59;5013853;28;20037;-75
2022/07/10 04:52:58;;;;;;;6.18;2.65;;;;;;;-149.78;100.00;50099.88;5016258;28;20444;-74
2022/07/10 04:55:24;;;;;;;6.47;3.00;;;;;;;-149.78;100.00;50119.41;5014790;28;20441;-74
2022/07/10 04:57:49;;;;;;;3.95;2.67;;;;;;;-149.78;100.00;50115.50;5015264;28;20630;-74
2022/07/10 05:00:15;;;;;;;5.13;2.83;;;;;;;-149.78;100.00;50099.88;5016023;28;20026;-74
2022/07/10 05:02:41;;;;;;;3.55;2.58;;;;;;;-149.78;100.00;50072.50;5016271;28;20053;-74
2022/07/10 05:05:08;;;;;;;3.70;2.55;;;;;;;-149.78;100.00;50092.03;5016736;28;20021;-75
2022/07/10 05:07:33;;;;;;;4.35;2.80;;;;;;;-149.78;100.00;50111.59;5017473;28;20032;-75
2022/07/10 05:09:59;;;;;;;3.22;2.88;;;;;;;-149.78;100.00;50154.63;5016955;28;20533;-74
2022/07/10 05:12:25;;;;;;;3.05;2.67;;;;;;;-149.78;100.00;50127.25;5014338;28;20034;-74
2022/07/10 05:14:51;;;;;;;3.05;2.50;;;;;;;-149.78;100.00;50080.31;5016846;28;20045;-74
2022/07/10 05:17:16;;;;;;;2.75;2.38;;;;;;;-149.78;100.00;50084.22;5015892;28;20030;-74
2022/07/10 05:19:42;;;;;;;6.25;2.70;;;;;;;-149.78;100.00;50088.13;5017625;28;20025;-74
2022/07/10 05:22:09;;;;;;;3.50;2.50;;;;;;;-149.78;100.00;50142.88;5016504;28;20025;-74
2022/07/10 05:24:35;;;;;;;2.75;2.20;;;;;;;-149.78;100.00;50099.88;5017022;28;20037;-75
2022/07/10 05:27:01;;;;;;;4.65;2.30;;;;;;;-149.78;100.00;50070.53;5015036;28;20038;-75
2022/07/10 05:29:26;;;;;;;3.42;2.38;;;;;;;-149.78;100.00;50146.81;5016764;28;20096;-75
2022/07/10 05:31:52;;;;;;;3.50;2.33;;;;;;;-149.78;100.00;50111.59;5016965;28;20042;-74
2022/07/10 05:34:17;;;;;;;4.20;2.60;;;;;;;-149.78;100.00;50127.25;5015862;28;20521;-74
2022/07/10 05:36:43;;;;;;;3.92;2.72;;;;;;;-149.78;100.00;50080.31;5015938;28;20687;-75
2022/07/10 05:39:09;;;;;;;3.33;2.53;;;;;;;-149.78;100.00;50037.28;5016140;28;20040;-74
2022/07/10 05:41:34;;;;;;;3.72;2.50;;;;;;;-149.78;100.00;50090.09;4997331;28;20021;-75
2022/07/10 05:44:00;;;;;;;2.67;2.30;;;;;;;-149.78;100.00;50070.53;5016147;28;20028;-74
2022/07/10 05:46:26;;;;;;;3.20;2.60;;;;;;;-149.78;100.00;50115.50;5015683;28;20068;-74
2022/07/10 05:48:52;;;;;;;4.28;2.70;;;;;;;-149.78;100.00;50072.50;5017440;28;20041;-74
2022/07/10 05:51:18;;;;;;;3.70;2.58;;;;;;;-149.78;100.00;50103.78;5017285;28;20034;-74
2022/07/10 05:53:44;;;;;;;2.45;2.25;;;;;;;-149.78;100.00;50080.31;5021715;28;20048;-74
2022/07/10 05:56:10;;;;;;;3.15;2.28;;;;;;;-149.78;100.00;50054.88;5020157;28;20621;-75
2022/07/10 05:58:36;;;;;;;3.10;2.70;;;;;;;-149.78;100.00;50086.19;5022050;28;20037;-74
2022/07/10 06:01:01;;;;;;;2.78;2.08;;;;;;;-149.78;100.00;50095.94;5019222;28;20820;-74
2022/07/10 06:03:27;;;;;;;3.72;2.55;;;;;;;-149.78;100.00;50099.88;5020534;28;20517;-74
2022/07/10 06:05:52;;;;;;;2.97;2.35;;;;;;;-149.78;100.00;50068.56;5018662;28;20159;-74
2022/07/10 06:08:18;;;;;;;3.97;2.67;;;;;;;-149.78;100.00;50045.09;5018551;28;20048;-74
2022/07/10 06:10:44;;;;;;;2.50;2.30;;;;;;;-149.78;100.00;50029.47;4983079;28;20034;-74
2022/07/10 06:13:13;;;;;;;3.47;2.38;;;;;;;-149.78;100.00;50043.16;5016815;28;20548;-74
2022/07/10 06:15:39;;;;;;;5.38;2.40;;;;;;;-149.78;100.00;50056.84;5017469;28;20029;-74
2022/07/10 06:18:04;;;;;;;3.42;2.35;;;;;;;-149.78;100.00;50088.13;5016881;28;20041;-74
2022/07/10 06:20:31;;;;;;;2.83;2.42;;;;;;;-149.78;100.00;50074.44;5017427;28;20041;-75
2022/07/10 06:22:57;;;;;;;2.15;1.95;;;;;;;-149.78;100.00;50047.06;5001458;28;20053;-75
2022/07/10 06:25:22;;;;;;;3.15;2.20;;;;;;;-149.78;100.00;50045.09;5018783;28;20042;-75
2022/07/10 06:27:48;;;;;;;2.78;2.20;;;;;;;-149.78;100.00;50025.56;5018475;28;20026;-74
2022/07/10 06:30:13;;;;;;;3.75;2.00;;;;;;;-149.78;100.00;50021.63;5000446;28;20581;-75
2022/07/10 06:32:39;;;;;;;2.42;1.80;;;;;;;-149.78;100.00;49990.34;5019544;28;20083;-74
2022/07/10 06:35:07;;;;;;;3.03;1.95;;;;;;;-149.78;100.00;50009.91;5002267;28;20033;-74
2022/07/10 06:37:32;;;;;;;2.42;1.80;;;;;;;-149.78;100.00;50009.91;5015659;28;20874;-74
2022/07/10 06:39:58;;;;;;;4.05;1.92;;;;;;;-149.78;99.99;50002.09;5008961;28;20058;-75
2022/07/10 06:42:24;;;;;;;3.50;1.58;;;;;;;-149.78;96.57;49959.06;5001960;28;20045;-73
2022/07/10 06:44:50;;;;;;;1.90;1.67;;;;;;;-149.78;80.51;49955.16;5011746;28;20030;-73
2022/07/10 06:50:04;;;;;;;1.88;1.77;;;;;;;-149.78;71.18;49916.03;5010237;28;20030;-74
2022/07/10 06:52:34;;;;;;;2.60;1.70;;;;;;;-149.78;64.19;49890.63;4996837;28;20038;-73
2022/07/10 06:55:04;;;;;;;1.70;1.60;;;;;;;-149.78;60.27;49876.94;5015781;28;20124;-73
2022/07/10 06:57:30;;;;;;;1.88;1.40;;;;;;;-149.78;52.34;49876.94;5014212;28;20046;-74
2022/07/10 06:59:56;;;;;;;1.55;1.25;;;;;;;-149.78;50.28;49916.03;5014562;28;20041;-74
2022/07/10 07:02:22;;;;;;;2.75;1.50;;;;;;;-149.78;47.29;49880.84;5007811;28;20025;-74
2022/07/10 07:04:48;;;;;;;5.20;1.80;;;;;;;-149.78;46.13;49855.41;5013718;28;20043;-73
2022/07/10 07:07:14;;;;;;;1.30;1.20;;;;;;;-149.78;44.32;49810.44;5015461;28;20083;-72
2022/07/10 07:09:42;;;;;;;1.70;1.42;;;;;;;-149.78;42.82;49822.19;5007530;28;20053;-74
2022/07/10 07:12:11;;;;;;;1.85;1.50;;;;;;;-149.78;42.17;49814.34;5008554;28;20080;-73
2022/07/10 07:14:37;;;;;;;1.90;1.45;;;;;;;-149.78;41.17;49796.75;5011924;28;20121;-73
2022/07/10 07:17:06;;;;;;;1.98;1.63;;;;;;;-149.78;40.17;49747.88;4995754;28;20037;-73
2022/07/10 07:25:07;;;;;;;6.60;1.50;;;;;;;-149.78;36.32;49740.06;5013012;28;20033;-71
2022/07/10 07:27:34;;;;;;;1.63;1.50;;;;;;;-149.78;35.69;49732.22;5018396;28;20069;-72
2022/07/10 07:30:08;;;;;;;1.92;1.45;;;;;;;-149.78;34.12;49685.31;5017423;28;20034;-68
2022/07/10 07:32:33;;;;;;;1.52;1.40;;;;;;;-149.78;34.71;49732.22;5016632;28;20033;-71
2022/07/10 07:35:00;;;;;;;2.58;1.50;;;;;;;-149.78;34.76;49747.88;5013817;28;20075;-71
2022/07/10 07:37:40;;;;;;;2.85;1.60;;;;;;;-149.78;35.73;49751.78;5012031;28;20528;-73
2022/07/10 07:40:08;;;;;;;4.90;1.27;;;;;;;-149.78;34.72;49712.69;5015510;28;20825;-71
2022/07/10 07:42:34;;;;;;;1.55;1.30;;;;;;;-149.78;33.02;49689.22;5015423;28;20029;-72
2022/07/10 07:45:00;;;;;;;1.30;1.20;;;;;;;-149.78;32.55;49652.06;5015628;28;20047;-72
2022/07/10 07:47:27;;;;;;;1.35;1.25;;;;;;;-149.78;31.35;49632.50;5013766;28;20033;-73
2022/07/10 07:49:52;;;;;;;1.48;1.30;;;;;;;-149.78;30.89;49626.63;5008180;28;20046;-73
2022/07/10 07:52:18;;;;;;;1.60;1.50;;;;;;;-149.78;30.22;49603.19;4996363;28;20037;-72
2022/07/10 07:54:45;;;;;;;1.85;1.27;;;;;;;-149.78;30.47;49603.19;5016068;28;20096;-71
2022/07/10 07:57:10;;;;;;;1.52;1.42;;;;;;;-149.78;30.38;49587.53;5013808;28;20042;-73
2022/07/10 07:59:36;;;;;;;1.52;1.27;;;;;;;-149.78;30.39;49603.19;5017040;28;20421;-73
2022/07/10 08:02:02;;;;;;;1.75;1.40;;;;;;;-149.78;29.18;49575.81;5009509;28;20026;-72
2022/07/10 08:04:27;;;;;;;1.85;1.20;;;;;;;-149.78;29.08;49587.53;5013614;28;20019;-73
2022/07/10 08:06:53;;;;;;;2.00;1.58;;;;;;;-149.78;28.98;49597.31;5016150;28;20481;-72
2022/07/10 08:09:19;;;;;;;1.52;1.40;;;;;;;-149.78;29.63;49616.88;5011084;28;20053;-70
2022/07/10 08:11:46;;;;;;;2.33;1.35;;;;;;;-149.78;28.64;49599.25;5014665;28;20052;-72
2022/07/10 08:14:12;;;;;;;1.55;1.40;;;;;;;-149.78;29.34;49583.63;5013923;28;20030;-73
2022/07/10 08:16:38;;;;;;;3.30;1.20;;;;;;;-149.78;29.31;49614.91;5014809;28;20852;-72
2022/07/10 08:19:03;;;;;;;1.30;1.20;;;;;;;-149.78;29.92;49626.63;5012764;28;20029;-73
2022/07/10 08:21:30;;;;;;;3.08;1.20;;;;;;;-149.78;29.26;49630.56;5016626;28;20084;-74
2022/07/10 08:23:56;;;;;;;2.00;1.35;;;;;;;-149.78;29.42;49618.81;5013648;28;20080;-72
2022/07/10 08:26:22;;;;;;;1.40;1.30;;;;;;;-149.78;28.62;49552.34;5016508;28;20053;-72
2022/07/10 08:28:47;;;;;;;1.40;1.30;;;;;;;-149.78;28.29;49573.84;4994502;28;20476;-72
2022/07/10 08:31:13;;;;;;;1.58;1.40;;;;;;;-149.78;27.88;49556.25;5014040;28;20120;-72
2022/07/10 08:33:39;;;;;;;1.30;1.20;;;;;;;-149.78;29.20;49603.19;4998290;28;20482;-72
2022/07/10 08:36:05;;;;;;;1.83;1.67;;;;;;;-149.78;28.78;49579.72;5016283;28;20088;-72
2022/07/10 08:38:31;;;;;;;1.08;1.00;;;;;;;-149.78;27.92;49564.06;5016160;28;20398;-72
2022/07/10 08:40:59;;;;;;;1.50;1.40;;;;;;;-149.78;28.76;49579.72;5016276;28;20030;-73
2022/07/10 08:43:25;;;;;;;1.95;1.35;;;;;;;-149.78;28.44;49571.88;5014742;28;20022;-71
2022/07/10 08:45:53;;;;;;;1.65;1.25;;;;;;;-149.78;27.87;49540.59;5018067;28;20057;-72
2022/07/10 08:48:24;;;;;;;2.17;1.50;;;;;;;-149.78;28.04;49560.16;5015733;28;20034;-71
2022/07/10 08:50:55;;;;;;;2.60;1.55;;;;;;;-149.78;28.55;49544.50;4983399;28;20080;-70
2022/07/10 08:53:30;;;;;;;2.00;1.40;;;;;;;-149.78;27.85;49532.78;5017807;28;20203;-70
2022/07/10 08:55:57;;;;;;;2.13;1.45;;;;;;;-149.78;27.30;49532.78;5015680;28;20168;-70
2022/07/10 08:58:23;;;;;;;1.50;1.33;;;;;;;-149.78;27.06;49532.78;5016959;28;20026;-69
2022/07/10 09:00:49;;;;;;;1.90;1.80;;;;;;;-149.78;27.60;49546.47;5018640;28;20037;-69
2022/07/10 09:03:15;;;;;;;2.00;1.80;;;;;;;-149.78;28.75;49571.88;5014410;28;20037;-71
2022/07/10 09:05:41;;;;;;;3.70;2.45;;;;;;;-149.78;28.44;49611.00;5016036;28;20038;-71
2022/07/10 09:08:23;;;;;;;2.55;2.08;;;;;;;-149.78;28.59;49601.22;5015109;28;20053;-71
2022/07/10 09:10:50;;;;;;;2.55;2.10;;;;;;;-149.78;28.59;49548.44;5013797;28;20050;-71
2022/07/10 09:13:16;;;;;;;1.92;1.67;;;;;;;-149.78;29.31;49548.44;5005405;28;20083;-71
